Time;durP1;ratioP1;P1;durP2;ratioP2;P2;SDS_P1;SDS_P2;PMS_P1;PMS_P2;Temp;Humidity;BMP_temperature;BMP_pressure;BME280_temperature;BME280_humidity;BME280_pressure;Samples;Min_cycle;Max_cycle;Signal;HPM_P1;HPM_P2
2021/08/19 00:02:09;;;;;;;7.30;1.50;;;;;;;;;;4806950;28;20221;-80
2021/08/19 00:04:33;;;;;;;11.47;2.40;;;14.50;50.70;;;;;;4809349;28;20241;-78
2021/08/19 00:06:56;;;;;;;8.33;1.87;;;;;;;;;;4794121;28;20559;-77
2021/08/19 00:09:19;;;;;;;16.40;3.53;;;;;;;;;;4803358;28;20196;-75
2021/08/19 00:11:43;;;;;;;7.80;1.70;;;;;;;;;;4825039;28;20273;-77
2021/08/19 00:14:06;;;;;;;10.27;2.10;;;;;;;;;;4824566;28;20269;-79
2021/08/19 00:16:29;;;;;;;11.77;2.53;;;;;;;;;;4809786;28;20199;-81
2021/08/19 00:18:52;;;;;;;8.00;1.77;;;;;;;;;;4827483;28;20191;-79
2021/08/19 00:21:16;;;;;;;6.77;1.47;;;14.20;50.30;;;;;;4826776;28;20241;-77
2021/08/19 00:23:38;;;;;;;8.53;1.90;;;;;;;;;;4793554;28;20192;-79
2021/08/19 00:26:01;;;;;;;7.17;1.60;;;;;;;;;;4827618;28;20249;-79
2021/08/19 00:28:24;;;;;;;12.73;2.67;;;;;;;;;;4810880;28;20196;-78
2021/08/19 00:30:47;;;;;;;9.63;2.07;;;;;;;;;;4810982;28;20204;-80
2021/08/19 00:33:10;;;;;;;8.40;1.90;;;;;;;;;;4830718;28;20194;-76
2021/08/19 00:35:33;;;;;;;11.50;2.47;;;;;;;;;;4829482;28;20207;-73
2021/08/19 00:37:57;;;;;;;9.87;2.10;;;14.00;50.10;;;;;;4810635;28;20270;-74
2021/08/19 00:40:20;;;;;;;12.73;2.77;;;;;;;;;;4827351;28;20562;-75
2021/08/19 00:42:43;;;;;;;7.10;1.53;;;;;;;;;;4828959;28;20189;-75
2021/08/19 00:45:08;;;;;;;7.43;1.63;;;14.00;49.90;;;;;;4826527;28;20195;-74
2021/08/19 00:47:31;;;;;;;12.10;2.60;;;;;;;;;;4808730;28;20207;-75
2021/08/19 00:49:53;;;;;;;8.53;1.90;;;;;;;;;;4814022;28;20246;-74
2021/08/19 00:52:16;;;;;;;6.70;1.63;;;;;;;;;;4802168;28;20348;-75
2021/08/19 00:54:41;;;;;;;7.47;1.80;;;13.90;49.80;;;;;;4832811;28;20203;-79
2021/08/19 00:57:06;;;;;;;8.77;1.93;;;13.90;49.80;;;;;;4818283;28;20203;-75
2021/08/19 00:59:31;;;;;;;12.10;2.63;;;12.50;49.30;;;;;;4794845;28;20192;-74
2021/08/19 01:01:54;;;;;;;8.03;1.80;;;;;;;;;;4827125;28;20183;-75
2021/08/19 01:04:17;;;;;;;10.43;2.17;;;;;;;;;;4809813;28;20211;-75
2021/08/19 01:06:40;;;;;;;8.20;1.70;;;13.80;49.50;;;;;;4811205;28;20254;-74
2021/08/19 01:09:05;;;;;;;8.77;1.87;;;13.70;49.50;;;;;;4803104;28;20720;-80
2021/08/19 01:11:30;;;;;;;12.20;2.70;;;13.70;49.40;;;;;;4809525;28;20269;-79
2021/08/19 01:13:52;;;;;;;8.53;1.90;;;;;;;;;;4827618;28;20212;-81
2021/08/19 01:16:16;;;;;;;6.20;1.37;;;13.70;49.30;;;;;;4816614;28;20620;-78
2021/08/19 01:18:43;;;;;;;8.20;2.00;;;13.60;49.30;;;;;;4792829;28;20193;-81
2021/08/19 01:21:06;;;;;;;7.17;1.60;;;;;;;;;;4816565;28;20463;-80
2021/08/19 01:23:29;;;;;;;13.03;2.87;;;;;;;;;;4828239;28;20214;-81
2021/08/19 01:25:52;;;;;;;6.97;1.60;;;;;;;;;;4810933;28;20207;-79
2021/08/19 01:28:16;;;;;;;7.23;1.60;;;13.60;49.00;;;;;;4809068;28;20208;-78
2021/08/19 01:30:39;;;;;;;7.47;1.67;;;;;;;;;;4815283;28;20211;-79
2021/08/19 01:33:02;;;;;;;7.47;1.80;;;;;;;;;;4789389;28;20719;-81
2021/08/19 01:35:26;;;;;;;13.43;2.87;;;13.60;49.00;;;;;;4806439;28;20274;-81
2021/08/19 01:37:49;;;;;;;6.63;1.57;;;;;;;;;;4790954;28;20204;-77
2021/08/19 01:40:13;;;;;;;7.20;1.67;;;;;;;;;;4810603;28;20605;-78
2021/08/19 01:42:35;;;;;;;5.60;1.30;;;;;;;;;;4826521;28;20188;-79
2021/08/19 01:44:59;;;;;;;11.77;2.57;;;13.60;48.90;;;;;;4801880;28;20200;-79
2021/08/19 01:47:23;;;;;;;11.27;2.50;;;;;;;;;;4798200;28;20191;-75
2021/08/19 01:49:45;;;;;;;6.40;1.50;;;;;;;;;;4810447;28;20199;-79
2021/08/19 01:52:11;;;;;;;6.40;1.50;;;13.40;48.70;;;;;;4794380;28;20197;-79
2021/08/19 01:54:34;;;;;;;8.57;1.97;;;;;;;;;;4824306;28;20262;-79
2021/08/19 01:56:57;;;;;;;7.87;1.73;;;;;;;;;;4828665;28;20237;-78
2021/08/19 01:59:20;;;;;;;10.40;2.37;;;;;;;;;;4809917;28;20255;-75
2021/08/19 02:01:45;;;;;;;9.47;2.10;;;13.40;48.50;;;;;;4822503;28;20278;-78
2021/08/19 02:04:08;;;;;;;8.20;1.90;;;;;;;;;;4810589;28;20199;-82
2021/08/19 02:06:31;;;;;;;11.60;2.57;;;;;;;;;;4825265;28;20556;-78
2021/08/19 02:08:54;;;;;;;8.90;2.00;;;;;;;;;;4819004;28;20187;-78
2021/08/19 02:11:16;;;;;;;6.90;1.60;;;;;;;;;;4832344;28;20219;-81
2021/08/19 02:13:40;;;;;;;5.13;1.30;;;;;;;;;;4825686;28;20204;-80
2021/08/19 02:16:04;;;;;;;7.10;1.70;;;13.50;48.40;;;;;;4812062;28;20270;-80
2021/08/19 02:18:28;;;;;;;12.13;2.70;;;13.50;48.30;;;;;;4821334;28;20202;-79
2021/08/19 02:20:51;;;;;;;7.20;1.60;;;;;;;;;;4830914;28;20562;-81
2021/08/19 02:23:13;;;;;;;7.87;1.87;;;;;;;;;;4825725;28;20254;-80
2021/08/19 02:25:36;;;;;;;5.63;1.33;;;;;;;;;;4832562;28;20180;-78
2021/08/19 02:27:59;;;;;;;11.33;2.47;;;13.30;48.00;;;;;;4806853;28;20199;-80
2021/08/19 02:30:22;;;;;;;12.33;2.67;;;;;;;;;;4826437;28;20191;-81
2021/08/19 02:32:45;;;;;;;7.50;1.77;;;;;;;;;;4801560;28;20195;-79
2021/08/19 02:35:10;;;;;;;6.80;1.60;;;13.30;47.80;;;;;;4808576;28;20219;-81
2021/08/19 02:37:33;;;;;;;10.47;2.40;;;;;;;;;;4829892;28;20179;-76
2021/08/19 02:39:56;;;;;;;6.83;1.67;;;;;;;;;;4807143;28;20184;-79
2021/08/19 02:42:19;;;;;;;12.13;2.70;;;;;;;;;;4806336;28;20693;-76
2021/08/19 02:44:41;;;;;;;7.60;1.73;;;;;;;;;;4825349;28;20226;-79
2021/08/19 02:47:06;;;;;;;8.10;1.77;;;13.30;46.40;;;;;;4809258;28;20196;-79
2021/08/19 02:49:29;;;;;;;12.60;2.77;;;;;;;;;;4818686;28;20656;-81
2021/08/19 02:51:53;;;;;;;8.83;1.90;;;13.10;47.10;;;;;;4806567;28;20719;-80
2021/08/19 02:54:15;;;;;;;6.77;1.63;;;;;;;;;;4827557;28;20229;-78
2021/08/19 02:56:40;;;;;;;5.97;1.27;;;;;;;;;;4796775;28;20211;-79
2021/08/19 02:59:03;;;;;;;8.50;1.83;;;;;;;;;;4810396;28;20575;-79
2021/08/19 03:01:25;;;;;;;13.63;2.70;;;;;;;;;;4830098;28;20195;-81
2021/08/19 03:03:48;;;;;;;8.53;1.67;;;;;;;;;;4831584;28;20190;-75
2021/08/19 03:06:11;;;;;;;11.07;2.27;;;;;;;;;;4830857;28;20206;-81
2021/08/19 03:08:35;;;;;;;12.30;2.47;;;13.30;46.30;;;;;;4809530;28;20200;-75
2021/08/19 03:10:58;;;;;;;9.47;1.90;;;;;;;;;;4831433;28;20285;-79
2021/08/19 03:13:20;;;;;;;14.47;2.73;;;;;;;;;;4829857;28;20223;-74
2021/08/19 03:15:43;;;;;;;7.13;1.50;;;;;;;;;;4809709;28;20224;-74
2021/08/19 03:18:06;;;;;;;9.67;1.93;;;;;;;;;;4824193;28;20195;-75
2021/08/19 03:20:30;;;;;;;14.47;2.70;;;;;;;;;;4818580;28;20205;-74
2021/08/19 03:22:53;;;;;;;9.67;2.10;;;;;;;;;;4815085;28;20190;-75
2021/08/19 03:25:17;;;;;;;8.23;1.77;;;13.70;46.80;;;;;;4811092;28;20259;-74
2021/08/19 03:27:39;;;;;;;7.43;1.57;;;;;;;;;;4829543;28;20257;-73
2021/08/19 03:30:02;;;;;;;5.73;1.20;;;;;;;;;;4807723;28;20203;-74
2021/08/19 03:32:25;;;;;;;11.60;2.23;;;;;;;;;;4810968;28;20625;-74
2021/08/19 03:34:48;;;;;;;4.90;1.17;;;;;;;;;;4829021;28;20192;-79
2021/08/19 03:37:11;;;;;;;5.97;1.30;;;;;;;;;;4808555;28;20289;-74
2021/08/19 03:39:35;;;;;;;9.70;1.87;;;;;;;;;;4835441;28;20664;-79
2021/08/19 03:41:59;;;;;;;4.33;0.90;;;13.70;46.80;;;;;;4815862;28;20277;-73
2021/08/19 03:44:21;;;;;;;10.60;1.97;;;;;;;;;;4827518;28;20250;-75
2021/08/19 03:46:44;;;;;;;6.33;1.20;;;13.80;46.90;;;;;;4809821;28;20258;-73
2021/08/19 03:49:08;;;;;;;5.87;1.17;;;;;;;;;;4828727;28;20188;-74
2021/08/19 03:51:31;;;;;;;7.63;1.53;;;;;;;;;;4829028;28;21032;-75
2021/08/19 03:53:55;;;;;;;6.23;1.20;;;;;;;;;;4803968;28;20200;-73
2021/08/19 03:56:17;;;;;;;5.37;1.00;;;;;;;;;;4818653;28;20236;-78
2021/08/19 03:58:41;;;;;;;5.27;1.23;;;14.10;47.20;;;;;;4805617;28;20200;-74
2021/08/19 04:01:06;;;;;;;7.33;1.33;;;;;;;;;;4824565;28;20195;-74
2021/08/19 04:03:28;;;;;;;11.63;2.23;;;;;;;;;;4829288;28;20336;-74
2021/08/19 04:05:51;;;;;;;6.13;1.20;;;;;;;;;;4826866;28;20724;-73
2021/08/19 04:08:14;;;;;;;6.77;1.23;;;;;;;;;;4813007;28;20183;-74
2021/08/19 04:10:37;;;;;;;5.67;1.10;;;;;;;;;;4810801;28;20228;-75
2021/08/19 04:13:00;;;;;;;4.30;0.93;;;;;;;;;;4797813;28;20215;-74
2021/08/19 04:15:23;;;;;;;11.87;2.13;;;14.50;47.70;;;;;;4829541;28;20262;-73
2021/08/19 04:17:48;;;;;;;5.17;1.10;;;;;;;;;;4828653;28;20210;-73
2021/08/19 04:20:12;;;;;;;4.77;1.00;;;14.50;47.80;;;;;;4807931;28;20258;-74
2021/08/19 04:22:34;;;;;;;8.60;1.60;;;;;;;;;;4779457;28;20200;-75
2021/08/19 04:24:57;;;;;;;9.43;1.70;;;;;;;;;;4828212;28;20191;-74
2021/08/19 04:27:20;;;;;;;7.87;1.47;;;;;;;;;;4828007;28;20183;-74
2021/08/19 04:29:43;;;;;;;4.40;0.90;;;;;;;;;;4827870;28;20202;-73
2021/08/19 04:32:09;;;;;;;7.47;1.47;;;14.80;48.30;;;;;;4807392;28;20207;-73
2021/08/19 04:34:32;;;;;;;9.40;1.83;;;;;;;;;;4817933;28;20652;-75
2021/08/19 04:36:56;;;;;;;7.33;1.43;;;;;;;;;;4806461;28;20359;-73
2021/08/19 04:39:18;;;;;;;3.07;0.67;;;;;;;;;;4825023;28;20192;-73
2021/08/19 04:41:42;;;;;;;5.20;1.00;;;;;;;;;;4803372;28;20188;-73
2021/08/19 04:44:05;;;;;;;5.77;1.17;;;15.10;48.40;;;;;;4827889;28;20249;-73
2021/08/19 04:46:27;;;;;;;14.57;2.67;;;;;;;;;;4818065;28;20191;-72
2021/08/19 04:48:51;;;;;;;5.57;1.10;;;15.20;48.60;;;;;;4824106;28;20222;-79
2021/08/19 04:51:14;;;;;;;4.87;0.97;;;;;;;;;;4825189;28;20194;-73
2021/08/19 04:53:38;;;;;;;2.47;0.50;;;15.30;48.70;;;;;;4822039;28;20211;-73
2021/08/19 04:56:00;;;;;;;3.93;1.00;;;;;;;;;;4856942;28;20808;-73
2021/08/19 04:58:24;;;;;;;6.60;1.63;;;;;;;;;;4839228;28;20202;-73
2021/08/19 05:00:47;;;;;;;8.20;2.17;;;;;;;;;;4838739;28;20317;-82
2021/08/19 05:03:09;;;;;;;3.83;1.13;;;;;;;;;;4840719;28;20663;-81
2021/08/19 05:05:33;;;;;;;4.93;1.53;;;15.80;48.60;;;;;;4825517;28;20199;-72
2021/08/19 05:07:56;;;;;;;5.57;1.63;;;;;;;;;;4831797;28;20585;-72
2021/08/19 05:10:19;;;;;;;3.30;1.07;;;;;;;;;;4807913;28;20226;-73
2021/08/19 05:12:42;;;;;;;1.33;0.60;;;;;;;;;;4808026;28;20254;-87
2021/08/19 05:15:06;;;;;;;2.27;0.93;;;16.50;49.10;;;;;;4822619;28;20247;-87
2021/08/19 05:17:29;;;;;;;3.63;1.43;;;;;;;;;;4812419;28;20215;-82
2021/08/19 05:19:51;;;;;;;1.43;0.67;;;;;;;;;;4813704;28;20191;-89
2021/08/19 05:22:15;;;;;;;1.63;0.80;;;16.20;50.00;;;;;;4834766;28;20191;-80
2021/08/19 05:24:38;;;;;;;2.03;0.97;;;;;;;;;;4839617;28;20182;-84
2021/08/19 05:27:01;;;;;;;0.47;0.40;;;;;;;;;;4819996;28;20219;-73
2021/08/19 05:29:23;;;;;;;2.80;1.37;;;;;;;;;;4836725;28;20194;-84
2021/08/19 05:31:46;;;;;;;1.73;0.83;;;16.80;50.10;;;;;;4838978;28;20637;-73
2021/08/19 05:34:09;;;;;;;0.87;0.43;;;;;;;;;;4821078;28;20271;-72
2021/08/19 05:36:32;;;;;;;2.63;1.23;;;;;;;;;;4838987;28;20252;-79
2021/08/19 05:38:55;;;;;;;1.97;0.83;;;16.80;51.00;;;;;;4839845;28;20249;-90
2021/08/19 05:41:18;;;;;;;1.30;0.60;;;16.70;50.70;;;;;;4813911;28;20619;-86
2021/08/19 05:43:41;;;;;;;1.30;0.70;;;16.80;50.40;;;;;;4807168;28;20261;-83
2021/08/19 05:46:04;;;;;;;1.73;0.83;;;;;;;;;;4827312;28;20225;-79
2021/08/19 05:48:26;;;;;;;4.37;1.53;;;;;;;;;;4802887;28;20238;-85
2021/08/19 05:50:49;;;;;;;3.83;1.40;;;;;;;;;;4819037;28;20187;-86
2021/08/19 05:53:12;;;;;;;1.60;0.70;;;;;;;;;;4819407;28;20183;-83
2021/08/19 05:55:36;;;;;;;3.63;1.50;;;17.30;51.50;;;;;;4801401;28;20203;-71
2021/08/19 05:58:00;;;;;;;2.37;0.90;;;;;;;;;;4785424;28;20252;-73
2021/08/19 06:00:23;;;;;;;4.60;1.60;;;;;;;;;;4800097;28;20204;-75
2021/08/19 06:02:45;;;;;;;3.03;0.93;;;;;;;;;;4783553;28;20737;-72
2021/08/19 06:05:09;;;;;;;2.20;0.80;;;17.00;50.80;;;;;;4801699;28;20192;-73
2021/08/19 06:07:32;;;;;;;3.67;1.27;;;;;;;;;;4818770;28;20704;-74
2021/08/19 06:09:55;;;;;;;3.07;0.93;;;;;;;;;;4800734;28;20690;-74
2021/08/19 06:12:19;;;;;;;2.03;0.70;;;17.80;51.80;;;;;;4817769;28;20709;-73
2021/08/19 06:14:42;;;;;;;1.70;0.50;;;;;;;;;;4837787;28;20186;-74
2021/08/19 06:17:05;;;;;;;3.77;0.90;;;;;;;;;;4837662;28;20210;-75
2021/08/19 06:19:28;;;;;;;7.27;2.13;;;;;;;;;;4819376;28;20254;-75
2021/08/19 06:21:50;;;;;;;2.53;0.70;;;;;;;;;;4837656;28;20183;-76
2021/08/19 06:24:13;;;;;;;2.10;0.77;;;;;;;;;;4836054;28;20241;-74
2021/08/19 06:26:36;;;;;;;4.23;1.30;;;;;;;;;;4819603;28;20206;-74
2021/08/19 06:29:00;;;;;;;3.63;1.03;;;18.50;52.50;;;;;;4836181;28;20194;-74
2021/08/19 06:31:23;;;;;;;3.40;1.10;;;;;;;;;;4835890;28;20201;-73
2021/08/19 06:33:45;;;;;;;1.73;0.60;;;;;;;;;;4837204;28;20241;-74
2021/08/19 06:36:08;;;;;;;2.43;0.80;;;;;;;;;;4836188;28;20621;-74
2021/08/19 06:38:31;;;;;;;5.10;1.57;;;;;;;;;;4837389;28;20214;-75
2021/08/19 06:40:54;;;;;;;3.30;1.00;;;;;;;;;;4803679;28;20199;-72
2021/08/19 06:43:16;;;;;;;2.27;0.80;;;;;;;;;;4819931;28;20754;-74
2021/08/19 06:45:41;;;;;;;1.40;0.50;;;18.90;53.00;;;;;;4819004;28;20215;-74
2021/08/19 06:48:03;;;;;;;1.30;0.50;;;;;;;;;;4838520;28;20258;-81
2021/08/19 06:50:26;;;;;;;4.33;1.27;;;;;;;;;;4836677;28;20257;-84
2021/08/19 06:52:49;;;;;;;1.60;0.50;;;;;;;;;;4838833;28;20183;-86
2021/08/19 06:55:13;;;;;;;1.87;0.60;;;19.40;53.20;;;;;;4835790;28;20722;-81
2021/08/19 06:57:36;;;;;;;4.03;1.27;;;;;;;;;;4836325;28;20687;-76
2021/08/19 06:59:59;;;;;;;2.23;0.80;;;;;;;;;;4836104;28;20237;-84
2021/08/19 07:02:22;;;;;;;4.03;1.13;;;19.60;53.50;;;;;;4817996;28;20200;-84
2021/08/19 07:04:45;;;;;;;2.77;0.87;;;;;;;;;;4836965;28;20261;-85
2021/08/19 07:07:08;;;;;;;3.07;0.90;;;;;;;;;;4837447;28;20179;-82
2021/08/19 07:09:31;;;;;;;4.17;1.23;;;;;;;;;;4820359;28;20199;-83
2021/08/19 07:11:54;;;;;;;2.73;0.80;;;;;;;;;;4837550;28;20235;-82
2021/08/19 07:14:17;;;;;;;2.10;0.60;;;;;;;;;;4837970;28;20191;-86
2021/08/19 07:16:40;;;;;;;2.07;0.60;;;;;;;;;;4819627;28;20245;-77
2021/08/19 07:19:04;;;;;;;3.93;0.97;;;20.50;54.40;;;;;;4815060;28;20224;-83
2021/08/19 07:21:27;;;;;;;9.07;1.73;;;21.40;54.50;;;;;;4833004;28;20225;-75
2021/08/19 07:23:50;;;;;;;4.87;0.97;;;;;;;;;;4819720;28;20200;-83
2021/08/19 07:26:13;;;;;;;7.40;1.43;;;;;;;;;;4819020;28;20777;-82
2021/08/19 07:28:35;;;;;;;10.57;1.77;;;;;;;;;;4836092;28;20188;-85
2021/08/19 07:30:58;;;;;;;7.33;1.23;;;;;;;;;;4803812;28;20236;-76
2021/08/19 07:33:21;;;;;;;4.73;0.87;;;;;;;;;;4821686;28;20629;-83
2021/08/19 07:35:46;;;;;;;6.73;1.00;;;21.40;55.00;;;;;;4839998;28;20681;-78
2021/08/19 07:38:11;;;;;;;12.10;1.77;;;;;;;;;;4830204;28;20570;-85
2021/08/19 07:40:34;;;;;;;12.27;1.73;;;;;;;;;;4821130;28;20292;-76
2021/08/19 07:42:57;;;;;;;9.20;1.37;;;;;;;;;;4821292;28;20236;-86
2021/08/19 07:45:20;;;;;;;4.37;0.73;;;;;;;;;;4786479;28;20205;-79
2021/08/19 07:47:43;;;;;;;11.70;1.73;;;;;;;;;;4803168;28;20254;-75
2021/08/19 07:50:08;;;;;;;12.67;1.83;;;22.10;55.90;;;;;;4787128;28;20214;-82
2021/08/19 07:52:32;;;;;;;13.37;1.90;;;22.00;56.00;;;;;;4821152;28;20190;-74
2021/08/19 07:54:55;;;;;;;13.87;1.90;;;;;;;;;;4820525;28;20187;-76
2021/08/19 07:57:18;;;;;;;9.77;1.40;;;;;;;;;;4821228;28;20240;-83
2021/08/19 07:59:40;;;;;;;8.33;1.20;;;;;;;;;;4820150;28;20195;-78
2021/08/19 08:02:03;;;;;;;12.93;1.83;;;;;;;;;;4803564;28;20250;-77
2021/08/19 08:04:26;;;;;;;32.67;4.20;;;;;;;;;;4799304;28;20239;-81
2021/08/19 08:06:49;;;;;;;10.47;1.50;;;;;;;;;;4803501;28;20295;-81
2021/08/19 08:09:14;;;;;;;16.37;2.17;;;22.80;56.70;;;;;;4804983;28;20302;-76
2021/08/19 08:11:37;;;;;;;17.20;2.27;;;;;;;;;;4838789;28;20231;-76
2021/08/19 08:14:01;;;;;;;5.10;0.70;;;;;;;;;;4805685;28;20220;-78
2021/08/19 08:16:24;;;;;;;13.50;1.77;;;;;;;;;;4804867;28;20200;-85
2021/08/19 08:18:47;;;;;;;10.03;1.40;;;;;;;;;;4805189;28;20224;-74
2021/08/19 08:21:13;;;;;;;8.87;1.20;;;;;;;;;;4805312;28;20199;-79
2021/08/19 08:23:37;;;;;;;17.00;2.33;;;;;;;;;;4819915;28;20203;-77
2021/08/19 08:26:01;;;;;;;5.73;0.87;;;22.60;56.70;;;;;;4821499;28;20689;-82
2021/08/19 08:28:26;;;;;;;15.53;2.00;;;;;;;;;;4821430;28;20553;-77
2021/08/19 08:30:51;;;;;;;18.00;2.37;;;;;;;;;;4821323;28;20773;-78
2021/08/19 08:33:15;;;;;;;7.43;1.10;;;22.90;57.00;;;;;;4820866;28;20196;-77
2021/08/19 08:35:38;;;;;;;13.73;1.93;;;;;;;;;;4804528;28;20242;-75
2021/08/19 08:38:02;;;;;;;5.93;0.90;;;;;;;;;;4839166;28;20680;-74
2021/08/19 08:40:27;;;;;;;17.40;2.33;;;23.30;57.40;;;;;;4805331;28;20541;-73
2021/08/19 08:42:51;;;;;;;13.90;1.93;;;23.10;57.20;;;;;;4820279;28;20204;-75
2021/08/19 08:45:16;;;;;;;8.37;1.10;;;23.30;57.40;;;;;;4803860;28;20201;-75
2021/08/19 08:47:39;;;;;;;9.67;1.30;;;23.60;57.50;;;;;;4789164;28;20352;-74
2021/08/19 08:50:02;;;;;;;8.83;1.17;;;;;;;;;;4825846;28;20191;-74
2021/08/19 08:52:25;;;;;;;18.00;2.27;;;;;;;;;;4790465;28;20211;-76
2021/08/19 08:54:50;;;;;;;9.97;1.30;;;;;;;;;;4827959;28;20189;-75
2021/08/19 08:57:13;;;;;;;9.97;1.23;;;;;;;;;;4812568;28;20213;-76
2021/08/19 08:59:36;;;;;;;16.73;2.03;;;23.90;58.10;;;;;;4803472;28;20589;-74
2021/08/19 09:02:01;;;;;;;8.53;1.07;;;24.00;58.00;;;;;;4824580;28;20198;-75
2021/08/19 09:04:24;;;;;;;52.60;5.73;;;;;;;;;;4831076;28;20646;-78
2021/08/19 09:06:47;;;;;;;15.70;1.87;;;;;;;;;;4808939;28;20223;-74
2021/08/19 09:09:19;;;;;;;11.30;1.33;;;24.40;58.20;;;;;;4830949;28;20598;-74
2021/08/19 09:11:43;;;;;;;9.07;1.13;;;24.60;58.50;;;;;;4810665;28;20224;-75
2021/08/19 09:14:15;;;;;;;239.43;133.87;;;25.00;51.30;;;;;;4794994;28;20209;-76
2021/08/19 09:16:45;;;;;;;453.07;242.57;;;25.40;44.20;;;;;;4788188;28;20195;-74
2021/08/19 09:19:10;;;;;;;400.27;243.87;;;25.80;44.40;;;;;;4812024;28;20672;-74
2021/08/19 09:21:33;;;;;;;356.30;192.80;;;;;;;;;;4826636;28;20245;-75
2021/08/19 09:24:15;;;;;;;363.20;190.40;;;26.70;45.10;;;;;;4811984;28;20196;-78
2021/08/19 09:26:39;;;;;;;362.03;189.57;;;;;;;;;;4828693;28;20231;-74
2021/08/19 09:29:13;;;;;;;423.90;231.80;;;;;;;;;;4838077;28;20233;-76
2021/08/19 09:31:37;;;;;;;404.30;222.00;;;28.70;46.30;;;;;;4817019;28;20201;-74
2021/08/19 09:34:02;;;;;;;411.23;248.03;;;29.60;46.90;;;;;;4801461;28;20251;-74
2021/08/19 09:36:24;;;;;;;429.60;248.07;;;;;;;;;;4800309;28;20199;-74
2021/08/19 09:38:47;;;;;;;259.63;175.93;;;;;;;;;;4817350;28;20339;-78
2021/08/19 09:41:12;;;;;;;9.20;1.20;;;31.50;47.90;;;;;;4830915;28;20195;-83
2021/08/19 09:43:42;;;;;;;13.37;1.93;;;31.80;48.50;;;;;;4825813;28;20199;-80
2021/08/19 09:46:05;;;;;;;9.07;1.27;;;;;;;;;;4792407;28;20275;-77
2021/08/19 09:48:30;;;;;;;25.43;3.43;;;34.50;49.50;;;;;;4820406;28;20274;-77
2021/08/19 09:51:11;;;;;;;12.88;1.73;;;34.50;49.80;;;;;;4815126;28;20183;-91
2021/08/19 09:53:42;;;;;;;16.67;2.05;;;33.70;49.60;;;;;;4835965;28;20198;-91
2021/08/19 09:56:05;;;;;;;23.00;2.93;;;;;;;;;;4809828;28;20249;-86
2021/08/19 09:58:32;;;;;;;16.80;2.03;;;32.20;49.20;;;;;;4804417;28;20207;-87
2021/08/19 10:00:55;;;;;;;10.60;1.40;;;;;;;;;;4810000;28;20596;-74
2021/08/19 10:03:19;;;;;;;9.07;1.23;;;;;;;;;;4807993;28;20205;-88
2021/08/19 10:05:42;;;;;;;10.07;1.30;;;;;;;;;;4829661;28;20190;-85
2021/08/19 10:08:08;;;;;;;11.40;1.47;;;29.60;47.90;;;;;;4830697;28;20183;-80
2021/08/19 10:10:31;;;;;;;17.73;2.20;;;;;;;;;;4810380;28;20296;-87
2021/08/19 10:12:57;;;;;;;11.87;1.60;;;29.60;48.10;;;;;;4808114;28;20280;-89
2021/08/19 10:15:21;;;;;;;8.67;1.13;;;28.60;47.70;;;;;;4834499;28;20225;-88
2021/08/19 10:17:48;;;;;;;10.83;1.53;;;28.00;47.40;;;;;;4805708;28;20239;-91
2021/08/19 10:20:15;;;;;;;7.10;1.00;;;27.50;47.10;;;;;;4818378;28;20220;-82
2021/08/19 10:22:39;;;;;;;13.07;1.90;;;27.20;47.00;;;;;;4818750;28;20187;-85
2021/08/19 10:25:05;;;;;;;8.37;1.20;;;27.20;46.90;;;;;;4816548;28;20199;-85
2021/08/19 10:27:30;;;;;;;12.23;1.70;;;27.40;47.00;;;;;;4820497;28;20190;-93
2021/08/19 10:29:55;;;;;;;5.20;0.77;;;27.50;47.00;;;;;;4817758;28;20250;-87
2021/08/19 10:32:23;;;;;;;9.50;1.43;;;28.30;47.30;;;;;;4819262;28;20559;-76
2021/08/19 10:35:03;;;;;;;8.10;1.17;;;29.80;47.90;;;;;;4828670;28;20236;-85
2021/08/19 10:37:59;;;;;;;14.20;1.93;;;31.00;48.40;;;;;;4835714;28;20195;-86
2021/08/19 10:40:41;;;;;;;9.90;1.47;;;32.50;49.00;;;;;;4806787;28;20225;-82
2021/08/19 10:43:44;;;;;;;7.87;1.10;;;33.60;49.60;;;;;;4816833;28;20199;-84
2021/08/19 10:46:09;;;;;;;6.95;1.02;;;34.00;50.00;;;;;;4819931;28;20234;-86
2021/08/19 10:48:44;;;;;;;18.23;2.57;;;34.00;49.90;;;;;;4819832;28;20716;-84
2021/08/19 10:51:10;;;;;;;7.75;1.10;;;33.50;49.70;;;;;;4812033;28;20572;-90
2021/08/19 10:53:33;;;;;;;13.10;1.90;;;;;;;;;;4836487;28;20645;-79
2021/08/19 10:55:58;;;;;;;7.97;1.20;;;31.40;49.00;;;;;;4814507;28;20203;-81
2021/08/19 10:58:26;;;;;;;4.27;0.73;;;30.60;48.60;;;;;;4828369;28;20197;-74
2021/08/19 11:00:49;;;;;;;12.67;1.93;;;;;;;;;;4820284;28;20599;-80
2021/08/19 11:03:43;;;;;;;8.43;1.30;;;28.70;47.90;;;;;;4836029;28;20685;-79
2021/08/19 11:06:07;;;;;;;6.10;0.90;;;28.10;47.70;;;;;;4809300;28;20208;-88
2021/08/19 11:08:47;;;;;;;11.43;1.80;;;27.90;47.40;;;;;;4821894;28;20715;-85
2021/08/19 11:11:13;;;;;;;5.40;0.87;;;27.90;47.40;;;;;;4828259;28;20229;-84
2021/08/19 11:13:36;;;;;;;8.43;1.23;;;;;;;;;;4805632;28;20211;-89
2021/08/19 11:15:59;;;;;;;7.60;1.23;;;;;;;;;;4830607;28;20183;-87
2021/08/19 11:18:25;;;;;;;6.47;1.10;;;27.10;47.10;;;;;;4837163;28;20706;-89
2021/08/19 11:20:48;;;;;;;8.63;1.43;;;;;;;;;;4818798;28;20352;-82
2021/08/19 11:23:13;;;;;;;6.53;1.10;;;26.10;46.70;;;;;;4808350;28;20203;-85
2021/08/19 11:25:37;;;;;;;14.07;2.33;;;25.60;46.50;;;;;;4815610;28;20599;-89
2021/08/19 11:28:23;;;;;;;9.03;1.53;;;25.00;53.70;;;;;;4828783;28;20235;-87
2021/08/19 11:30:47;;;;;;;3.80;0.67;;;24.50;60.80;;;;;;4810391;28;20242;-83
2021/08/19 11:33:14;;;;;;;3.67;0.80;;;24.30;60.60;;;;;;4815124;28;20198;-89
2021/08/19 11:35:38;;;;;;;7.33;1.30;;;;;;;;;;4815817;28;20240;-77
2021/08/19 11:38:09;;;;;;;5.70;1.00;;;24.80;60.70;;;;;;4832228;28;20188;-80
2021/08/19 11:40:32;;;;;;;7.20;1.30;;;;;;;;;;4813947;28;20771;-82
2021/08/19 11:42:55;;;;;;;6.57;1.30;;;;;;;;;;4813422;28;20240;-79
2021/08/19 11:45:22;;;;;;;6.73;1.27;;;27.00;46.70;;;;;;4821474;28;20245;-81
2021/08/19 11:47:45;;;;;;;7.03;1.30;;;;;;;;;;4811760;28;20206;-77
2021/08/19 11:50:08;;;;;;;4.63;0.90;;;;;;;;;;4805614;28;20202;-83
2021/08/19 11:52:31;;;;;;;10.03;1.80;;;;;;;;;;4821659;28;20253;-79
2021/08/19 11:54:57;;;;;;;5.93;1.07;;;;;;;;;;4812697;28;20208;-80
2021/08/19 11:57:23;;;;;;;4.53;0.87;;;28.80;46.60;;;;;;4831225;28;20187;-81
2021/08/19 11:59:56;;;;;;;4.77;0.93;;;29.10;47.90;;;;;;4821743;28;20231;-77
2021/08/19 12:02:20;;;;;;;5.80;1.13;;;28.70;47.70;;;;;;4828639;28;20238;-76
2021/08/19 12:04:43;;;;;;;5.33;1.07;;;;;;;;;;4812202;28;20258;-82
2021/08/19 12:07:07;;;;;;;7.90;1.43;;;;;;;;;;4831591;28;20193;-78
2021/08/19 12:09:33;;;;;;;13.27;2.40;;;27.60;47.20;;;;;;4818980;28;20698;-86
2021/08/19 12:11:56;;;;;;;7.77;1.50;;;27.50;47.20;;;;;;4817762;28;20663;-74
2021/08/19 12:14:25;;;;;;;10.43;2.03;;;27.80;47.40;;;;;;4806712;28;20203;-75
2021/08/19 12:16:49;;;;;;;5.17;1.07;;;28.50;47.60;;;;;;4824890;28;20240;-77
2021/08/19 12:19:16;;;;;;;5.73;1.20;;;29.60;48.00;;;;;;4806961;28;20198;-76
2021/08/19 12:21:40;;;;;;;6.13;1.30;;;30.00;48.20;;;;;;4827070;28;20233;-76
2021/08/19 12:24:12;;;;;;;5.97;1.17;;;29.90;48.20;;;;;;4814869;28;20201;-76
2021/08/19 12:26:35;;;;;;;6.33;1.33;;;;;;;;;;4802296;28;20232;-76
2021/08/19 12:28:58;;;;;;;6.63;1.33;;;;;;;;;;4818734;28;20207;-77
2021/08/19 12:31:21;;;;;;;4.83;0.97;;;;;;;;;;4827912;28;20203;-79
2021/08/19 12:33:44;;;;;;;4.87;0.93;;;;;;;;;;4811398;28;20262;-77
2021/08/19 12:36:19;;;;;;;7.67;1.57;;;27.70;47.20;;;;;;4825745;28;20243;-80
2021/08/19 12:38:43;;;;;;;3.23;0.77;;;27.50;47.10;;;;;;4831734;28;20240;-78
2021/08/19 12:41:14;;;;;;;6.97;1.30;;;27.30;47.00;;;;;;4813288;28;20217;-82
2021/08/19 12:43:36;;;;;;;7.17;1.43;;;;;;;;;;4827201;28;20223;-76
2021/08/19 12:46:06;;;;;;;5.00;1.07;;;27.10;46.90;;;;;;4823821;28;20257;-72
2021/08/19 12:48:29;;;;;;;7.50;1.50;;;;;;;;;;4828320;28;20690;-86
2021/08/19 12:50:52;;;;;;;4.13;0.90;;;;;;;;;;4819701;28;20203;-87
2021/08/19 12:53:16;;;;;;;5.43;1.20;;;26.40;46.60;;;;;;4817972;28;20294;-92
2021/08/19 12:55:39;;;;;;;6.27;1.37;;;26.10;46.40;;;;;;4825762;28;20186;-79
2021/08/19 12:58:02;;;;;;;5.20;1.10;;;;;;;;;;4825513;28;20622;-89
2021/08/19 13:00:27;;;;;;;23.83;4.67;;;25.70;46.20;;;;;;4813655;28;20229;-79
2021/08/19 13:02:50;;;;;;;4.60;1.00;;;25.50;46.10;;;;;;4836451;28;20185;-87
2021/08/19 13:05:15;;;;;;;2.63;0.60;;;25.30;46.00;;;;;;4822275;28;20190;-82
2021/08/19 13:07:38;;;;;;;9.67;2.07;;;;;;;;;;4832145;28;20188;-92
2021/08/19 13:10:03;;;;;;;3.47;0.77;;;25.20;45.90;;;;;;4805120;28;20981;-86
2021/08/19 13:12:26;;;;;;;7.70;1.77;;;25.30;45.90;;;;;;4820449;28;20209;-83
2021/08/19 13:14:49;;;;;;;1.83;0.43;;;;;;;;;;4810153;28;20262;-90
2021/08/19 13:17:12;;;;;;;2.80;0.63;;;;;;;;;;4789911;28;20202;-80
2021/08/19 13:19:35;;;;;;;6.67;1.50;;;;;;;;;;4810010;28;20202;-82
2021/08/19 13:21:58;;;;;;;4.07;0.90;;;;;;;;;;4819889;28;20304;-78
2021/08/19 13:24:20;;;;;;;5.10;1.13;;;;;;;;;;4829782;28;20209;-78
2021/08/19 13:26:44;;;;;;;2.63;0.60;;;25.80;46.30;;;;;;4837574;28;20184;-85
2021/08/19 13:29:07;;;;;;;6.97;1.53;;;;;;;;;;4829871;28;20602;-80
2021/08/19 13:31:30;;;;;;;5.43;1.23;;;;;;;;;;4815049;28;20193;-87
2021/08/19 13:33:53;;;;;;;4.00;0.97;;;;;;;;;;4821121;28;20264;-89
2021/08/19 13:36:16;;;;;;;3.87;0.80;;;;;;;;;;4812464;28;20214;-89